Terminal Aerodrome Forecast
Issued by NWS Louisville, KY

Home | Current Version | Previous Version | Text Only | Print | Product List | Glossary On
Versions: 1 2 3 4 5 6 7 8 9 10 11 12 13 14 15 16 17 18 19 20 21
000
FTUS43 KLMK 162334
TAFSDF
TAF
KSDF 162334Z 1700/1806 35009KT P6SM SCT025 BKN035
      TEMPO 1700/1702 BKN025
     FM170600 04005KT P6SM FEW030 BKN250
     FM171400 10004KT P6SM SCT025 OVC050 PROB30 1716/1718 4SM -SHRA
      OVC025
     FM171800 17005KT 2SM -SHRA OVC011
     FM172300 26007KT P6SM OVC012=

USA.gov is the U.S. government's official web portal to all federal, state and local government web resources and services.